Columbine Hills, CO (80128)

5:19 AM MST on February 08, 2016 (GMT -0700)
Woodbury Hills | | Change Station
CLOSE
Current Station
Personal Weather Station
Location: Littleton, CO
Elevation: 5735 ft
Nearby Weather Stations

Elev 5735 ft 39.60 °N, 105.12 °W | Updated 4 minutes ago

Partly Cloudy
Partly Cloudy
17.6 °F
Feels Like 18 °F
N
0.0
Wind Variable Wind from SSW

Today
High -- | Low -- °F
--% Chance of Precip.
Yesterday
High -- | Low -- °F
Precip. -- in
Pressure 30.46 in
Visibility 10.0 miles
Clouds Scattered Clouds 16000 ft
Windchill 18 °F
Dew Point 15 °F
Humidity 90%
Rainfall 0.00 in
Snow Depth Not available.
7:01 AM 5:28 PM
Waning Crescent, 0% visible
METAR KAPA 081153Z 15005KT 10SM SCT160 M06/M10 A3030 RMK AO2 SLP314 T10561100 11056 21072 58013
Pressure 30.46 in
Visibility 10.0 miles
Clouds Scattered Clouds 16000 ft
Windchill 18 °F
Dew Point 15 °F
Humidity 90%
Rainfall 0.00 in
Snow Depth Not available.
7:01 AM 5:28 PM
Waning Crescent, 0% visible
METAR KAPA 081153Z 15005KT 10SM SCT160 M06/M10 A3030 RMK AO2 SLP314 T10561100 11056 21072 58013

10-Day Weather Forecast

Almanac

Astronomy

Feb. 08, 2016 Rise Set
Actual Time
Civil Twilight
Nautical Twilight
Astronomical Twilight
Moon
Length of Visible Light
Length of Day
Tomorrow will be .
, % of the Moon is Illuminated

Today's Extremes

State Highs State Lows

Community

WunderPhotos

Upload Photos

1,891,420 photos uploaded!

WunderBlog® & News

Nearby

Air Quality

  Air Quality AQ Index Pollutant
Not available.

Snow Depth

Station Depth Elevation

Earthquake Activity

City Distance Mag. Time & Date
Minimum magnitude displayed is 2.5.

Coastal Water Temperatures

Place Temperature

Stations

Nearby Weather Stations

Station Location Temp. Windchill Dew Point Humidity Wind Precip. Elev Updated Type
                   

Watches & Warnings

There are currently no watches in effect.